LIMW/AOT METAR and TAF weather

Enter ICAO airport designator
Station Type Date Time Source
LIMW METAR 2020/08/10 18:20 UTC NOAA

LIMW 101820Z AUTO 08006KT 9999 FEW120/// 24/17 Q1018


Station Type Date Time Source
LIMW Decoded METAR 2020/08/10 18:20 UTC NOAA

Station name not available
Aug 10, 2020 - 02:20 PM EDT / 2020.08.10 1820 UTC
Wind: from the E (080 degrees) at 7 MPH (6 KT):0
Visibility: greater than 7 mile(s):0
Sky conditions: mostly clear
Temperature: 75 F (24 C)
Dew Point: 62 F (17 C)
Relative Humidity: 64%
Pressure (altimeter): 30.06 in. Hg (1018 hPa)
ob: LIMW 101820Z AUTO 08006KT 9999 FEW120/// 24/17 Q1018
cycle: 18

Station Type Date Time Source
LIMW TAF UTC NOAA

Error!

Example: see airport list